Albenga, Italy

10:29 AM CET on October 26, 2014 (GMT +0100)
Andora - colla micheri | Change Station
CLOSE
Current Station
Personal Weather Station
Location: Andora,
Elevation: 577 ft
Nearby Weather Stations

Elev 577 ft 43.97 °N, 8.15 °E | Updated 4 minutes ago

Clear
Clear
60.1 °F
Feels Like 60.1 °F
N
3.0
Wind Variable Wind from NNW
Gusts 3.0 mph

Today
High -- | Low -- °F
--% Chance of Precip.
Yesterday
High -- | Low -- °F
Precip. -- in
6:55 AM 5:26 PM
Waxing Crescent, 7% visible
Pressure 30.21 in
Visibility -9999.0 miles
Clouds
Dew Point 48 °F
Humidity 64%
Rainfall 0.00 in
Snow Depth Not available.
UV Not available.
Pollen Not available.
Air Quality Not available.
Flu Activity Not available.
METAR LIMU 260855Z 34010KT CAVOK 16/07 Q1023 RMK BKN BKN120 QUK 2 QUL 1 E VIS MAR 15 KM VIS MIN 9999

More Conditions Fewer Conditions

Pressure 30.21 in
Visibility -9999.0 miles
Clouds
Dew Point 48 °F
Humidity 64%
Rainfall 0.00 in
Snow Depth Not available.
UV Not available.
Pollen Not available.
Air Quality Not available.
Flu Activity Not available.
METAR LIMU 260855Z 34010KT CAVOK 16/07 Q1023 RMK BKN BKN120 QUK 2 QUL 1 E VIS MAR 15 KM VIS MIN 9999

More Conditions Fewer Conditions

10-Day Weather Forecast

Almanac

Astronomy

Oct. 26, 2014 Rise Set
Actual Time 6:55 AM CET 5:26 PM CET
Civil Twilight 6:26 AM CET 5:56 PM CET
Nautical Twilight 5:52 AM CET 6:29 PM CET
Astronomical Twilight 5:18 AM CET 7:03 PM CET
Moon 9:21 AM CET 7:20 PM CET
Length of Visible Light 11h 29m
Length of Day
10h 30m
Tomorrow will be 2m 48s shorter.
Waxing Crescent, 7% of the Moon is Illuminated
Today
Waxing Crescent
Oct 30
First Quarter
Nov 6
Full
Nov 14
Last Quarter
Nov 22
New

Yesterday's Extremes

Country Highs Country Lows

Community

WunderPhotos

Upload Photos

1,765,130 photos uploaded!

Nearby

Snow Depth

Not available.

Earthquake Activity

City Distance Mag. Time & Date
No recent earthquake activity has been reported nearby.
Minimum magnitude displayed is 2.5.

Coastal Water Temperatures

Place Temperature
No Stations Reporting

Nearby Weather Stations